Archival Weather

Gondia Arpt/Birsi

Gondia Arpt/Birsi, India (VAGD)

Report from: Thursday, April 25, 2024 4:30 AM UTC
Current time: Saturday, June 22, 2024 8:51 AM UTC

Current weather – Weather history – Daily summaries
Weather forecast

Present weatherHaze
Temperature34.0°C (93.2°F)
Heat index40.6°C (105.1°F)
Dew point24.0°C (75.2°F)
Winds 2 kts (1 m/s, 2.3 mph) West-Northwest (290°)
Visibility3.1 mi. (5 km)
Altimeter29.83 in.Hg (1010 mB)
Relative humidity56 %
Density altitude2,668 ft. (813 m)
Remarks No significant changes expected in the next two hours
Flight conditions Marginal Visual Meteorological Conditions
Raw dataVAGD 250430Z 29002KT 5000 HZ NSC 34/24 Q1010 NOSIG
An error has occurred. This application may no longer respond until reloaded. Reload 🗙